Time;durP1;ratioP1;P1;durP2;ratioP2;P2;SDS_P1;SDS_P2;PMS_P1;PMS_P2;Temp;Humidity;BMP_temperature;BMP_pressure;BME280_temperature;BME280_humidity;BME280_pressure;Samples;Min_cycle;Max_cycle;Signal;HPM_P1;HPM_P2
2023/12/27 00:02:00;;;;;;;4.15;1.50;;;;;;;;;;4980702;28;20239;-79
2023/12/27 00:04:30;;;;;;;5.80;1.80;;;;;;;;;;4993443;28;20218;-78
2023/12/27 00:07:02;;;;;;;5.50;1.80;;;;;;;;;;4992712;28;20199;-80
2023/12/27 00:09:30;;;;;;;3.53;1.50;;;;;;;;;;4993283;28;20195;-80
2023/12/27 00:12:00;;;;;;;4.28;1.58;;;;;;;;;;4986616;28;20198;-78
2023/12/27 00:14:30;;;;;;;6.38;1.55;;;;;;;;;;4986678;28;20283;-80
2023/12/27 00:17:00;;;;;;;4.72;1.70;;;;;;;;;;4991656;28;20283;-79
2023/12/27 00:19:30;;;;;;;6.93;2.17;;;;;;;;;;4999031;28;20201;-80
2023/12/27 00:22:02;;;;;;;3.45;1.58;;;;;;;;;;4988960;28;20681;-80
2023/12/27 00:24:32;;;;;;;5.10;1.73;;;;;;;;;;4987392;28;20199;-80
2023/12/27 00:27:02;;;;;;;6.35;1.75;;;;;;;;;;4992554;28;20200;-80
2023/12/27 00:29:32;;;;;;;3.78;1.40;;;;;;;;;;4999341;28;20199;-80
2023/12/27 00:32:02;;;;;;;3.65;1.80;;;;;;;;;;4996692;28;20201;-80
2023/12/27 00:34:32;;;;;;;7.65;2.63;;;;;;;;;;4980748;28;20590;-78
2023/12/27 00:37:04;;;;;;;5.13;1.63;;;;;;;;;;4993849;28;20206;-82
2023/12/27 00:39:34;;;;;;;5.90;2.03;;;;;;;;;;4992438;28;20195;-80
2023/12/27 00:42:04;;;;;;;5.32;1.52;;;;;;;;;;4979666;28;20233;-83
2023/12/27 00:44:33;;;;;;;4.75;1.50;;;;;;;;;;4993702;28;20211;-82
2023/12/27 00:47:03;;;;;;;5.32;1.95;;;;;;;;;;4987826;28;20204;-79
2023/12/27 00:49:34;;;;;;;4.95;1.50;;;;;;;;;;4992831;28;20199;-81
2023/12/27 00:52:05;;;;;;;6.80;1.55;;;;;;;;;;4991327;28;20322;-81
2023/12/27 00:54:35;;;;;;;2.50;1.05;;;;;;;;;;4992322;28;20616;-80
2023/12/27 00:57:05;;;;;;;8.02;1.70;;;;;;;;;;4988933;28;20640;-81
2023/12/27 00:59:35;;;;;;;5.50;1.73;;;;;;;;;;4993629;28;20207;-82
2023/12/27 01:02:06;;;;;;;2.80;1.20;;;;;;;;;;4986506;28;20242;-83
2023/12/27 01:04:36;;;;;;;4.82;1.40;;;;;;;;;;4982054;28;20188;-79
2023/12/27 01:07:08;;;;;;;7.05;1.70;;;;;;;;;;4993653;28;20210;-83
2023/12/27 01:09:38;;;;;;;5.00;1.27;;;;;;;;;;4998499;28;20557;-81
2023/12/27 01:12:08;;;;;;;3.38;1.30;;;;;;;;;;4995504;28;20222;-80
2023/12/27 01:14:38;;;;;;;4.97;1.33;;;;;;;;;;4996797;28;20203;-81
2023/12/27 01:17:08;;;;;;;3.60;1.40;;;;;;;;;;4996494;28;20206;-82
2023/12/27 01:19:39;;;;;;;4.15;1.50;;;;;;;;;;4992157;28;20209;-79
2023/12/27 01:22:10;;;;;;;5.30;1.23;;;;;;;;;;4994623;28;20220;-79
2023/12/27 01:24:40;;;;;;;7.22;1.40;;;;;;;;;;4989476;28;20188;-80
2023/12/27 01:27:10;;;;;;;3.72;1.40;;;;;;;;;;4994697;28;20639;-80
2023/12/27 01:29:40;;;;;;;7.35;1.48;;;;;;;;;;4996205;28;20570;-81
2023/12/27 01:32:10;;;;;;;4.03;1.25;;;;;;;;;;4996877;28;20291;-82
2023/12/27 01:34:41;;;;;;;2.90;1.20;;;;;;;;;;4994765;28;20208;-80
2023/12/27 01:37:13;;;;;;;3.38;1.23;;;;;;;;;;4997125;28;20302;-82
2023/12/27 01:39:43;;;;;;;3.55;1.20;;;;;;;;;;4991282;28;20200;-82
2023/12/27 01:42:12;;;;;;;4.28;1.25;;;;;;;;;;4976603;28;20228;-80
2023/12/27 01:44:42;;;;;;;5.05;1.13;;;;;;;;;;4991351;28;20200;-81
2023/12/27 01:47:13;;;;;;;4.32;1.45;;;;;;;;;;4988916;28;20595;-82
2023/12/27 01:49:43;;;;;;;3.85;1.40;;;;;;;;;;4977699;28;20201;-81
2023/12/27 01:52:16;;;;;;;4.35;1.50;;;;;;;;;;4991568;28;20207;-81
2023/12/27 01:54:46;;;;;;;6.65;1.60;;;;;;;;;;4996108;28;20188;-81
2023/12/27 01:57:16;;;;;;;2.45;1.15;;;;;;;;;;4995700;28;20191;-79
2023/12/27 01:59:46;;;;;;;4.35;1.20;;;;;;;;;;4994917;28;20200;-79
2023/12/27 02:02:16;;;;;;;3.40;0.93;;;;;;;;;;4995258;28;20242;-80
2023/12/27 02:04:46;;;;;;;4.18;1.65;;;;;;;;;;4996410;28;20196;-83
2023/12/27 02:07:18;;;;;;;3.95;1.17;;;;;;;;;;4995907;28;20199;-82
2023/12/27 02:09:49;;;;;;;3.65;1.30;;;;;;;;;;4994306;28;20551;-80
2023/12/27 02:12:26;;;;;;;3.38;1.08;;;;;;;;;;4994944;28;20191;-80
2023/12/27 02:14:56;;;;;;;3.20;1.00;;;;;;;;;;4994373;28;20191;-79
2023/12/27 02:17:26;;;;;;;4.15;1.05;;;;;;;;;;4987684;28;20284;-83
2023/12/27 02:19:57;;;;;;;2.85;1.15;;;;;;;;;;4995088;28;20195;-79
2023/12/27 02:22:30;;;;;;;2.08;1.00;;;;;;;;;;4992107;28;20223;-82
2023/12/27 02:25:02;;;;;;;5.25;1.50;;;;;;;;;;4985369;28;20192;-82
2023/12/27 02:27:32;;;;;;;3.75;1.17;;;;;;;;;;4994751;28;20234;-81
2023/12/27 02:30:02;;;;;;;2.55;1.05;;;;;;;;;;4995529;28;20203;-78
2023/12/27 02:32:32;;;;;;;4.70;1.50;;;;;;;;;;4995478;28;20215;-83
2023/12/27 02:35:02;;;;;;;6.57;1.30;;;;;;;;;;4983848;28;20200;-79
2023/12/27 02:37:32;;;;;;;3.85;1.20;;;;;;;;;;4989303;28;20564;-81
2023/12/27 02:40:04;;;;;;;4.78;1.10;;;;;;;;;;4986742;28;20279;-80
2023/12/27 02:42:34;;;;;;;5.93;1.23;;;;;;;;;;4993245;28;20219;-79
2023/12/27 02:45:04;;;;;;;4.13;1.20;;;;;;;;;;4993265;28;20574;-82
2023/12/27 02:47:34;;;;;;;3.42;1.13;;;;;;;;;;4994237;28;20202;-83
2023/12/27 02:50:04;;;;;;;6.85;1.30;;;;;;;;;;4993967;28;20233;-82
2023/12/27 02:52:34;;;;;;;2.65;1.20;;;;;;;;;;4994859;28;20616;-83
2023/12/27 02:55:06;;;;;;;4.10;1.55;;;;;;;;;;4994696;28;20261;-82
2023/12/27 02:57:36;;;;;;;4.75;1.30;;;;;;;;;;4994685;28;20192;-82
2023/12/27 03:00:06;;;;;;;4.60;1.23;;;;;;;;;;4994657;28;20219;-81
2023/12/27 03:02:36;;;;;;;11.38;5.90;;;;;;;;;;4994584;28;20747;-80
2023/12/27 03:05:06;;;;;;;63.28;53.70;;;;;;;;;;4993495;28;20212;-80
2023/12/27 03:07:36;;;;;;;22.67;17.60;;;;;;;;;;4994471;28;20682;-79
2023/12/27 03:10:08;;;;;;;4.57;1.50;;;;;;;;;;4994170;28;20279;-78
2023/12/27 03:12:38;;;;;;;3.22;1.10;;;;;;;;;;4994355;28;20563;-80
2023/12/27 03:15:09;;;;;;;9.65;6.10;;;;;;;;;;4993876;28;20283;-80
2023/12/27 03:17:39;;;;;;;3.88;1.42;;;;;;;;;;4990864;28;20210;-80
2023/12/27 03:20:09;;;;;;;4.25;0.68;;;;;;;;;;4993213;28;20196;-81
2023/12/27 03:22:39;;;;;;;2.25;0.60;;;;;;;;;;4993331;28;20215;-83
2023/12/27 03:25:11;;;;;;;3.45;0.70;;;;;;;;;;4994486;28;20195;-81
2023/12/27 03:27:41;;;;;;;3.38;0.90;;;;;;;;;;4980199;28;20644;-79
2023/12/27 03:30:11;;;;;;;5.03;1.08;;;;;;;;;;4993606;28;20667;-78
2023/12/27 03:32:41;;;;;;;3.15;1.08;;;;;;;;;;4993496;28;20199;-79
2023/12/27 03:35:11;;;;;;;3.33;1.10;;;;;;;;;;4994162;28;20208;-78
2023/12/27 03:37:41;;;;;;;2.58;1.05;;;;;;;;;;4994329;28;20204;-78
2023/12/27 03:40:14;;;;;;;2.75;0.90;;;;;;;;;;4993884;28;20219;-78
2023/12/27 03:42:44;;;;;;;3.03;0.85;;;;;;;;;;4994027;28;20223;-77
2023/12/27 03:45:14;;;;;;;1.23;0.77;;;;;;;;;;4992909;28;20287;-78
2023/12/27 03:47:44;;;;;;;3.22;0.73;;;;;;;;;;4987228;28;20282;-78
2023/12/27 03:50:14;;;;;;;4.43;1.52;;;;;;;;;;4992922;28;20199;-79
2023/12/27 03:52:45;;;;;;;2.15;0.80;;;;;;;;;;4993467;28;20199;-79
2023/12/27 03:55:17;;;;;;;1.85;1.00;;;;;;;;;;4993365;28;20711;-79
2023/12/27 03:57:47;;;;;;;2.47;1.00;;;;;;;;;;4980027;28;20196;-79
2023/12/27 04:00:17;;;;;;;1.88;0.80;;;;;;;;;;4993938;28;20306;-79
2023/12/27 04:02:48;;;;;;;4.60;0.80;;;;;;;;;;4993437;28;20215;-79
2023/12/27 04:05:18;;;;;;;1.38;0.73;;;;;;;;;;4993922;28;20218;-78
2023/12/27 04:07:48;;;;;;;2.28;0.88;;;;;;;;;;4993729;28;20562;-79
2023/12/27 04:10:20;;;;;;;1.55;0.70;;;;;;;;;;4993793;28;20200;-79
2023/12/27 04:12:52;;;;;;;3.22;1.02;;;;;;;;;;4993695;28;20202;-79
2023/12/27 04:15:22;;;;;;;2.95;1.00;;;;;;;;;;4993840;28;20200;-79
2023/12/27 04:17:52;;;;;;;1.45;0.70;;;;;;;;;;4993448;28;20199;-80
2023/12/27 04:20:21;;;;;;;2.30;0.77;;;;;;;;;;4993009;28;20408;-79
2023/12/27 04:22:51;;;;;;;1.48;0.60;;;;;;;;;;4993407;28;20238;-80
2023/12/27 04:25:23;;;;;;;1.55;0.70;;;;;;;;;;4993929;28;20203;-79
2023/12/27 04:27:53;;;;;;;2.42;0.88;;;;;;;;;;4993731;28;20283;-78
2023/12/27 04:30:23;;;;;;;1.42;0.80;;;;;;;;;;4993550;28;20214;-80
2023/12/27 04:32:53;;;;;;;1.67;0.95;;;;;;;;;;4993688;28;20564;-80
2023/12/27 04:35:23;;;;;;;4.80;0.90;;;;;;;;;;4993374;28;20279;-78
2023/12/27 04:37:53;;;;;;;2.58;0.90;;;;;;;;;;4993704;28;20196;-79
2023/12/27 04:40:25;;;;;;;2.92;0.90;;;;;;;;;;4992430;28;20200;-79
2023/12/27 04:42:55;;;;;;;4.18;1.13;;;;;;;;;;4995331;28;20714;-79
2023/12/27 04:45:25;;;;;;;5.20;1.33;;;;;;;;;;4995408;28;20204;-79
2023/12/27 04:47:58;;;;;;;2.85;1.10;;;;;;;;;;4989982;28;20633;-78
2023/12/27 04:50:28;;;;;;;6.30;1.20;;;;;;;;;;4977673;28;20648;-79
2023/12/27 04:52:58;;;;;;;3.53;1.10;;;;;;;;;;4982068;28;20287;-76
2023/12/27 04:55:30;;;;;;;3.78;1.30;;;;;;;;;;4986700;28;20258;-76
2023/12/27 04:58:00;;;;;;;5.00;1.35;;;;;;;;;;4985334;28;20192;-77
2023/12/27 05:00:30;;;;;;;5.22;1.10;;;;;;;;;;4987457;28;20216;-79
2023/12/27 05:02:59;;;;;;;6.30;1.10;;;;;;;;;;4983578;28;20599;-79
2023/12/27 05:05:29;;;;;;;4.75;1.02;;;;;;;;;;4985175;28;20196;-79
2023/12/27 05:07:59;;;;;;;4.78;1.27;;;;;;;;;;4977420;28;20210;-80
2023/12/27 05:10:31;;;;;;;6.90;1.50;;;;;;;;;;4987118;28;20208;-78
2023/12/27 05:13:01;;;;;;;4.93;1.63;;;;;;;;;;4995042;28;20203;-79
2023/12/27 05:15:31;;;;;;;7.15;2.00;;;;;;;;;;4996074;28;20200;-79
2023/12/27 05:18:01;;;;;;;11.00;1.90;;;;;;;;;;4996468;28;20203;-79
2023/12/27 05:20:31;;;;;;;8.05;1.90;;;;;;;;;;4996559;28;20207;-79
2023/12/27 05:23:01;;;;;;;6.38;1.70;;;;;;;;;;4995748;28;20564;-79
2023/12/27 05:25:32;;;;;;;11.13;2.53;;;;;;;;;;4996601;28;20302;-79
2023/12/27 05:28:02;;;;;;;17.83;5.78;;;;;;;;;;4996582;28;20274;-78
2023/12/27 05:30:33;;;;;;;14.82;3.50;;;;;;;;;;4996181;28;20198;-78
2023/12/27 05:33:03;;;;;;;12.13;2.63;;;;;;;;;;4996498;28;20241;-79
2023/12/27 05:35:33;;;;;;;14.93;3.13;;;;;;;;;;4997070;28;20218;-80
2023/12/27 05:38:03;;;;;;;11.23;2.58;;;;;;;;;;4996709;28;20202;-78
2023/12/27 05:40:35;;;;;;;7.80;2.33;;;;;;;;;;4995947;28;20211;-78
2023/12/27 05:43:05;;;;;;;10.73;2.15;;;;;;;;;;4996071;28;20577;-81
2023/12/27 05:45:35;;;;;;;10.68;2.30;;;;;;;;;;4980776;28;20661;-79
2023/12/27 05:48:04;;;;;;;13.25;2.28;;;;;;;;;;4985932;28;20640;-81
2023/12/27 05:50:34;;;;;;;12.73;2.55;;;;;;;;;;4995395;28;20196;-80
2023/12/27 05:53:04;;;;;;;9.32;2.45;;;;;;;;;;4995594;28;20632;-81
2023/12/27 05:55:36;;;;;;;12.30;2.28;;;;;;;;;;4995948;28;20236;-80
2023/12/27 05:58:06;;;;;;;8.40;1.90;;;;;;;;;;4995878;28;20223;-80
2023/12/27 06:00:37;;;;;;;14.50;2.35;;;;;;;;;;4995485;28;20306;-80
2023/12/27 06:03:07;;;;;;;10.00;1.98;;;;;;;;;;4985241;28;20277;-79
2023/12/27 06:05:37;;;;;;;10.63;2.00;;;;;;;;;;4992463;28;20278;-80
2023/12/27 06:08:08;;;;;;;10.10;1.60;;;;;;;;;;4986647;28;20204;-79
2023/12/27 06:10:39;;;;;;;11.27;2.20;;;;;;;;;;4985625;28;20226;-81
2023/12/27 06:13:09;;;;;;;8.90;1.55;;;;;;;;;;4994190;28;20545;-79
2023/12/27 06:15:39;;;;;;;11.55;1.92;;;;;;;;;;4986329;28;20199;-80
2023/12/27 06:18:09;;;;;;;9.55;1.70;;;;;;;;;;4994110;28;20203;-80
2023/12/27 06:20:39;;;;;;;7.32;1.60;;;;;;;;;;4993911;28;20203;-79
2023/12/27 06:23:09;;;;;;;6.45;1.60;;;;;;;;;;4993573;28;20231;-79
2023/12/27 06:25:41;;;;;;;8.05;1.60;;;;;;;;;;4976022;28;20204;-81
2023/12/27 06:28:11;;;;;;;5.07;1.25;;;;;;;;;;4994739;28;20294;-80
2023/12/27 06:30:41;;;;;;;8.98;1.60;;;;;;;;;;4995381;28;20230;-80
2023/12/27 06:33:11;;;;;;;6.80;1.80;;;;;;;;;;4993373;28;20303;-79
2023/12/27 06:35:41;;;;;;;5.47;1.40;;;;;;;;;;4995328;28;20207;-79
2023/12/27 06:38:11;;;;;;;6.35;1.30;;;;;;;;;;4980622;28;20552;-81
2023/12/27 06:40:43;;;;;;;4.50;1.23;;;;;;;;;;4992301;28;20656;-79
2023/12/27 06:43:13;;;;;;;6.05;1.50;;;;;;;;;;4986088;28;20222;-79
2023/12/27 06:45:43;;;;;;;6.72;1.45;;;;;;;;;;4976190;28;20212;-79
2023/12/27 06:48:13;;;;;;;5.53;1.40;;;;;;;;;;4983074;28;20217;-80
2023/12/27 06:50:41;;;;;;;6.90;1.38;;;;;;;;;;4994903;28;20206;-79
2023/12/27 06:53:11;;;;;;;5.78;1.42;;;;;;;;;;4993829;28;20211;-79
2023/12/27 06:55:43;;;;;;;7.78;1.48;;;;;;;;;;4983087;28;20596;-78
2023/12/27 06:58:13;;;;;;;6.85;1.42;;;;;;;;;;4992975;28;20202;-78
2023/12/27 07:00:43;;;;;;;8.43;1.33;;;;;;;;;;4987606;28;20874;-79
2023/12/27 07:03:13;;;;;;;7.18;1.23;;;;;;;;;;4995189;28;20220;-79
2023/12/27 07:05:43;;;;;;;3.92;1.00;;;;;;;;;;5013795;28;20206;-79
2023/12/27 07:08:13;;;;;;;8.77;1.27;;;;;;;;;;5007642;28;20204;-78
2023/12/27 07:10:45;;;;;;;6.75;1.65;;;;;;;;;;4975337;28;20590;-79
2023/12/27 07:13:15;;;;;;;6.25;1.45;;;;;;;;;;4983909;28;20192;-79
2023/12/27 07:15:45;;;;;;;3.60;1.08;;;;;;;;;;4994596;28;20199;-80
2023/12/27 07:18:15;;;;;;;5.60;1.45;;;;;;;;;;4994243;28;20215;-80
2023/12/27 07:20:45;;;;;;;4.18;1.10;;;;;;;;;;5003564;28;20253;-79
2023/12/27 07:23:15;;;;;;;5.40;1.10;;;;;;;;;;5007587;28;20227;-79
2023/12/27 07:25:48;;;;;;;5.10;1.40;;;;;;;;;;4994413;28;20238;-80
2023/12/27 07:28:19;;;;;;;4.70;1.00;;;;;;;;;;4994477;28;20231;-79
2023/12/27 07:30:49;;;;;;;5.15;1.20;;;;;;;;;;4991822;28;20199;-80
2023/12/27 07:33:19;;;;;;;4.05;1.15;;;;;;;;;;4984272;28;20222;-80
2023/12/27 07:35:49;;;;;;;2.95;1.13;;;;;;;;;;4989050;28;20191;-80
2023/12/27 07:38:19;;;;;;;4.93;1.00;;;;;;;;;;4994299;28;20237;-80
2023/12/27 07:40:51;;;;;;;6.38;1.33;;;;;;;;;;4992677;28;20196;-80
2023/12/27 07:43:22;;;;;;;7.55;1.35;;;;;;;;;;4990530;28;20691;-80
2023/12/27 07:45:52;;;;;;;4.75;1.58;;;;;;;;;;4991302;28;20188;-80
2023/12/27 07:48:22;;;;;;;4.80;1.13;;;;;;;;;;4981995;28;20203;-80
2023/12/27 07:50:52;;;;;;;9.05;1.60;;;;;;;;;;4974867;28;20188;-80
2023/12/27 07:53:22;;;;;;;5.50;1.42;;;;;;;;;;4975541;28;20298;-80
2023/12/27 07:55:54;;;;;;;4.75;1.60;;;;;;;;;;4993164;28;20227;-80
2023/12/27 07:58:24;;;;;;;4.07;1.13;;;;;;;;;;4988823;28;20234;-81
2023/12/27 08:00:55;;;;;;;2.40;1.15;;;;;;;;;;4992771;28;20230;-80
2023/12/27 08:03:25;;;;;;;5.55;1.30;;;;;;;;;;4991994;28;20215;-80
2023/12/27 08:05:54;;;;;;;4.35;1.05;;;;;;;;;;4992637;28;20208;-80
2023/12/27 08:08:25;;;;;;;7.50;1.30;;;;;;;;;;4983907;28;20205;-80
2023/12/27 08:10:56;;;;;;;4.90;1.35;;;;;;;;;;4975178;28;20200;-81
2023/12/27 08:13:26;;;;;;;4.97;1.02;;;;;;;;;;4978931;28;20652;-81
2023/12/27 08:15:56;;;;;;;5.43;1.27;;;;;;;;;;4973501;28;20680;-81
2023/12/27 08:18:26;;;;;;;4.35;1.30;;;;;;;;;;4978410;28;20207;-81
2023/12/27 08:20:56;;;;;;;7.90;1.38;;;;;;;;;;4977789;28;20683;-81
2023/12/27 08:23:27;;;;;;;3.10;1.15;;;;;;;;;;4978067;28;20220;-81
2023/12/27 08:25:59;;;;;;;7.07;1.33;;;;;;;;;;4978646;28;20215;-81
2023/12/27 08:28:30;;;;;;;4.28;1.20;;;;;;;;;;4978254;28;20192;-81
2023/12/27 08:31:00;;;;;;;6.53;1.30;;;;;;;;;;4978195;28;20663;-81
2023/12/27 08:33:30;;;;;;;4.68;1.20;;;;;;;;;;4978335;28;20565;-81
2023/12/27 08:36:01;;;;;;;8.40;1.20;;;;;;;;;;4978239;28;20192;-81
2023/12/27 08:38:31;;;;;;;4.28;1.25;;;;;;;;;;4977947;28;20251;-81
2023/12/27 08:41:03;;;;;;;7.65;1.48;;;;;;;;;;4978252;28;20208;-80
2023/12/27 08:43:35;;;;;;;5.65;1.40;;;;;;;;;;4978204;28;20700;-81
2023/12/27 08:46:05;;;;;;;8.15;1.40;;;;;;;;;;4978413;28;20199;-81
2023/12/27 08:48:35;;;;;;;5.47;1.30;;;;;;;;;;4991847;28;20204;-81
2023/12/27 08:51:05;;;;;;;5.30;1.83;;;;;;;;;;4997328;28;20208;-81
2023/12/27 08:53:35;;;;;;;5.63;1.50;;;;;;;;;;4997190;28;20235;-81
2023/12/27 08:56:08;;;;;;;9.20;1.50;;;;;;;;;;4997296;28;20235;-81
2023/12/27 08:58:37;;;;;;;5.40;1.20;;;;;;;;;;4997210;28;20222;-81
2023/12/27 09:01:08;;;;;;;5.35;1.48;;;;;;;;;;4997346;28;20230;-81
2023/12/27 09:03:37;;;;;;;4.50;1.48;;;;;;;;;;4997123;28;20707;-81
2023/12/27 09:06:07;;;;;;;4.40;1.58;;;;;;;;;;4996993;28;20213;-81
2023/12/27 09:08:39;;;;;;;6.22;1.42;;;;;;;;;;4997121;28;20218;-81
2023/12/27 09:11:12;;;;;;;5.15;1.40;;;;;;;;;;4997109;28;20191;-81
2023/12/27 09:13:42;;;;;;;5.72;1.20;;;;;;;;;;4997020;28;20192;-81
2023/12/27 09:16:11;;;;;;;6.43;1.52;;;;;;;;;;4997276;28;20211;-81
2023/12/27 09:18:41;;;;;;;8.00;1.60;;;;;;;;;;4996913;28;20207;-81
2023/12/27 09:21:11;;;;;;;7.75;1.45;;;;;;;;;;4996709;28;20292;-81
2023/12/27 09:23:41;;;;;;;7.82;1.70;;;;;;;;;;4996733;28;20227;-81
2023/12/27 09:26:17;;;;;;;7.65;1.90;;;;;;;;;;4996867;28;20214;-81
2023/12/27 09:28:47;;;;;;;6.95;1.65;;;;;;;;;;4995811;28;20278;-81
2023/12/27 09:31:17;;;;;;;3.90;1.35;;;;;;;;;;4996924;28;20214;-81
2023/12/27 09:33:47;;;;;;;6.53;1.80;;;;;;;;;;4996589;28;20207;-81
2023/12/27 09:36:23;;;;;;;8.85;1.80;;;;;;;;;;4996385;28;20209;-81
2023/12/27 09:38:53;;;;;;;12.43;1.95;;;;;;;;;;4996881;28;20210;-81
2023/12/27 09:41:25;;;;;;;8.13;1.90;;;;;;;;;;4996461;28;20188;-81
2023/12/27 09:43:55;;;;;;;8.48;1.80;;;;;;;;;;4996611;28;20229;-81
2023/12/27 09:46:26;;;;;;;4.90;1.60;;;;;;;;;;4996506;28;20192;-81
2023/12/27 09:48:57;;;;;;;8.68;2.28;;;;;;;;;;4992835;28;20210;-81
2023/12/27 09:51:27;;;;;;;8.63;1.90;;;;;;;;;;4996038;28;20230;-81
2023/12/27 09:53:57;;;;;;;9.98;2.00;;;;;;;;;;4996209;28;20214;-81
2023/12/27 09:56:29;;;;;;;9.05;1.90;;;;;;;;;;4995991;28;20341;-81
2023/12/27 09:58:59;;;;;;;7.03;1.90;;;;;;;;;;4996174;28;20596;-81
2023/12/27 10:01:33;;;;;;;8.48;2.05;;;;;;;;;;4996038;28;20227;-81
2023/12/27 10:04:05;;;;;;;7.13;2.30;;;;;;;;;;4995841;28;20215;-81
2023/12/27 10:06:40;;;;;;;6.30;2.20;;;;;;;;;;4996034;28;20196;-81
2023/12/27 10:09:11;;;;;;;11.38;2.15;;;;;;;;;;4995924;28;20199;-81
2023/12/27 10:11:44;;;;;;;9.48;2.50;;;;;;;;;;4996146;28;20642;-81
2023/12/27 10:14:14;;;;;;;11.27;2.90;;;;;;;;;;4996006;28;20200;-81
2023/12/27 10:16:44;;;;;;;5.68;1.95;;;;;;;;;;4995830;28;20576;-80
2023/12/27 10:19:28;;;;;;;8.65;2.13;;;;;;;;;;4995539;28;20203;-81
2023/12/27 10:21:58;;;;;;;7.55;1.50;;;;;;;;;;4995621;28;20648;-80
2023/12/27 10:24:29;;;;;;;6.22;1.40;;;;;;;;;;4995787;28;20695;-80
2023/12/27 10:27:01;;;;;;;5.90;1.70;;;;;;;;;;4995749;28;20211;-80
2023/12/27 10:29:32;;;;;;;7.47;1.70;;;;;;;;;;4995789;28;20205;-80
2023/12/27 10:32:02;;;;;;;4.88;1.65;;;;;;;;;;4995591;28;20199;-80
2023/12/27 10:34:33;;;;;;;6.97;1.50;;;;;;;;;;4995367;28;20206;-80
2023/12/27 10:37:07;;;;;;;5.45;1.20;;;;;;;;;;4995484;28;20291;-80
2023/12/27 10:39:37;;;;;;;8.57;1.30;;;;;;;;;;4995542;28;20198;-80
2023/12/27 10:42:09;;;;;;;10.38;1.42;;;;;;;;;;4995418;28;20207;-80
2023/12/27 10:44:39;;;;;;;10.43;1.63;;;;;;;;;;4995341;28;20219;-80
2023/12/27 10:47:13;;;;;;;3.70;1.15;;;;;;;;;;5004133;28;20202;-80
2023/12/27 10:49:44;;;;;;;5.10;1.10;;;;;;;;;;4997056;28;20231;-80
2023/12/27 10:52:14;;;;;;;8.13;1.23;;;;;;;;;;4995432;28;20191;-80
2023/12/27 10:54:46;;;;;;;4.60;1.08;;;;;;;;;;4995219;28;20199;-80
2023/12/27 10:57:22;;;;;;;4.97;1.10;;;;;;;;;;4995066;28;20199;-80
2023/12/27 10:59:53;;;;;;;3.55;1.00;;;;;;;;;;4995082;28;20223;-80
2023/12/27 11:02:23;;;;;;;5.43;1.42;;;;;;;;;;4994806;28;20299;-80
2023/12/27 11:04:54;;;;;;;5.68;1.02;;;;;;;;;;4995003;28;20223;-80
2023/12/27 11:07:24;;;;;;;6.53;1.15;;;;;;;;;;4994960;28;20419;-80
2023/12/27 11:09:56;;;;;;;5.45;1.00;;;;;;;;;;4994694;28;20205;-80
2023/12/27 11:12:31;;;;;;;4.80;1.30;;;;;;;;;;4994809;28;20671;-80
2023/12/27 11:15:02;;;;;;;5.28;1.00;;;;;;;;;;4994832;28;20223;-80
2023/12/27 11:17:32;;;;;;;5.63;1.05;;;;;;;;;;4994525;28;20287;-80
2023/12/27 11:20:04;;;;;;;4.68;1.13;;;;;;;;;;4994576;28;20219;-80
2023/12/27 11:22:34;;;;;;;2.83;1.08;;;;;;;;;;4994971;28;20556;-80
2023/12/27 11:25:04;;;;;;;4.07;1.27;;;;;;;;;;4994778;28;20231;-80
2023/12/27 11:27:36;;;;;;;2.72;1.10;;;;;;;;;;4994474;28;20199;-80
2023/12/27 11:30:09;;;;;;;3.90;1.17;;;;;;;;;;4994497;28;20191;-80
2023/12/27 11:32:43;;;;;;;5.80;1.10;;;;;;;;;;4994332;28;20654;-80
2023/12/27 11:35:13;;;;;;;6.40;1.20;;;;;;;;;;4994491;28;20562;-80
2023/12/27 11:37:43;;;;;;;4.05;1.10;;;;;;;;;;4994429;28;20208;-80
2023/12/27 11:40:14;;;;;;;4.88;1.00;;;;;;;;;;4994411;28;20211;-80
2023/12/27 11:42:47;;;;;;;3.30;1.15;;;;;;;;;;4994408;28;20197;-80
2023/12/27 11:45:17;;;;;;;6.75;1.40;;;;;;;;;;4994364;28;20223;-80
2023/12/27 11:47:47;;;;;;;3.08;1.20;;;;;;;;;;4993002;28;20203;-80
2023/12/27 11:50:24;;;;;;;3.35;1.20;;;;;;;;;;4990273;28;20203;-80
2023/12/27 11:52:53;;;;;;;4.93;1.30;;;;;;;;;;4993674;28;20735;-80
2023/12/27 11:55:24;;;;;;;5.50;1.27;;;;;;;;;;4993664;28;20231;-81
2023/12/27 11:58:04;;;;;;;3.42;1.23;;;;;;;;;;4993657;28;20206;-81
2023/12/27 12:00:36;;;;;;;5.40;1.60;;;;;;;;;;4993668;28;20330;-80
2023/12/27 12:03:10;;;;;;;5.13;1.13;;;;;;;;;;4994202;28;20207;-80
2023/12/27 12:05:49;;;;;;;5.20;1.50;;;;;;;;;;4993547;28;20223;-81
2023/12/27 12:08:26;;;;;;;2.35;1.30;;;;;;;;;;4994012;28;20296;-80
2023/12/27 12:11:11;;;;;;;6.38;1.35;;;;;;;;;;4987493;28;20183;-80
2023/12/27 12:13:43;;;;;;;4.97;1.50;;;;;;;;;;4991159;28;20195;-80
2023/12/27 12:16:13;;;;;;;6.47;1.45;;;;;;;;;;4993191;28;20192;-80
2023/12/27 12:18:43;;;;;;;2.83;1.25;;;;;;;;;;4993325;28;20279;-80
2023/12/27 12:21:13;;;;;;;3.70;1.20;;;;;;;;;;4993384;28;20666;-80
2023/12/27 12:23:43;;;;;;;6.45;1.50;;;;;;;;;;4993650;28;20196;-80
2023/12/27 12:26:13;;;;;;;3.80;1.40;;;;;;;;;;4993542;28;20228;-80
2023/12/27 12:28:58;;;;;;;6.07;1.50;;;;;;;;;;4992946;28;20202;-80
2023/12/27 12:31:27;;;;;;;4.43;1.38;;;;;;;;;;4993801;28;20243;-80
2023/12/27 12:33:57;;;;;;;5.78;1.90;;;;;;;;;;4991778;28;20203;-81
2023/12/27 12:36:28;;;;;;;5.22;1.70;;;;;;;;;;4993802;28;20226;-80
2023/12/27 12:38:58;;;;;;;3.30;1.50;;;;;;;;;;4993741;28;20202;-80
2023/12/27 12:41:28;;;;;;;4.30;1.48;;;;;;;;;;4993739;28;20207;-81
2023/12/27 12:44:00;;;;;;;5.63;1.60;;;;;;;;;;4993355;28;20231;-80
2023/12/27 12:46:30;;;;;;;7.43;1.60;;;;;;;;;;4993665;28;20198;-80
2023/12/27 12:49:00;;;;;;;2.92;1.30;;;;;;;;;;4990487;28;20200;-80
2023/12/27 12:51:29;;;;;;;2.72;1.30;;;;;;;;;;4989000;28;20200;-81
2023/12/27 12:53:59;;;;;;;5.22;1.50;;;;;;;;;;4984665;28;20199;-81
2023/12/27 12:56:30;;;;;;;4.18;1.70;;;;;;;;;;4989010;28;20227;-80
2023/12/27 12:59:02;;;;;;;6.63;1.80;;;;;;;;;;4981145;28;20196;-80
2023/12/27 13:01:32;;;;;;;5.65;1.70;;;;;;;;;;4978193;28;20208;-80
2023/12/27 13:04:02;;;;;;;7.78;1.67;;;;;;;;;;4993684;28;20195;-79
2023/12/27 13:06:32;;;;;;;5.65;1.45;;;;;;;;;;4995589;28;20199;-79
2023/12/27 13:09:03;;;;;;;6.22;1.85;;;;;;;;;;4995257;28;20210;-80
2023/12/27 13:11:34;;;;;;;8.10;1.85;;;;;;;;;;4995752;28;20648;-80
2023/12/27 13:14:06;;;;;;;4.88;1.73;;;;;;;;;;4995027;28;20231;-80
2023/12/27 13:16:35;;;;;;;6.72;1.73;;;;;;;;;;4995482;28;20188;-80
2023/12/27 13:19:06;;;;;;;8.75;1.77;;;;;;;;;;4996250;28;20200;-80
2023/12/27 13:21:36;;;;;;;9.63;2.00;;;;;;;;;;4995746;28;20267;-80
2023/12/27 13:24:06;;;;;;;5.18;1.67;;;;;;;;;;5001368;28;20214;-80
2023/12/27 13:26:37;;;;;;;7.72;2.08;;;;;;;;;;4983452;28;20204;-80
2023/12/27 13:29:09;;;;;;;7.68;2.53;;;;;;;;;;4986383;28;20274;-80
2023/12/27 13:31:39;;;;;;;7.03;1.95;;;;;;;;;;4993992;28;20191;-80
2023/12/27 13:34:09;;;;;;;12.15;2.10;;;;;;;;;;4993429;28;20671;-80
2023/12/27 13:36:39;;;;;;;7.03;1.95;;;;;;;;;;4977097;28;20652;-80
2023/12/27 13:39:09;;;;;;;10.30;2.42;;;;;;;;;;4982142;28;20287;-80
2023/12/27 13:41:39;;;;;;;4.53;1.70;;;;;;;;;;4995223;28;20200;-80
2023/12/27 13:44:11;;;;;;;8.15;2.10;;;;;;;;;;4996052;28;20200;-80
2023/12/27 13:46:41;;;;;;;7.15;1.98;;;;;;;;;;4997077;28;20226;-80
2023/12/27 13:49:11;;;;;;;6.55;2.10;;;;;;;;;;4995891;28;20207;-80
2023/12/27 13:51:41;;;;;;;7.38;1.83;;;;;;;;;;4993160;28;20199;-80
2023/12/27 13:54:11;;;;;;;7.20;1.90;;;;;;;;;;4996112;28;20195;-80
2023/12/27 13:56:41;;;;;;;10.23;2.10;;;;;;;;;;5011915;28;20227;-80
2023/12/27 13:59:13;;;;;;;5.60;1.80;;;;;;;;;;5023670;28;20206;-80
2023/12/27 14:01:42;;;;;;;7.05;2.10;;;;;;;;;;5015604;28;20191;-80
2023/12/27 14:04:12;;;;;;;11.57;2.22;;;;;;;;;;5015840;28;20555;-80
2023/12/27 14:06:42;;;;;;;4.13;1.73;;;;;;;;;;5015578;28;20253;-80
2023/12/27 14:09:14;;;;;;;5.85;1.92;;;;;;;;;;5015630;28;20207;-80
2023/12/27 14:11:44;;;;;;;4.47;2.00;;;;;;;;;;5015183;28;20654;-80
2023/12/27 14:14:16;;;;;;;9.13;2.13;;;;;;;;;;4996498;28;20200;-80
2023/12/27 14:16:50;;;;;;;8.23;2.03;;;;;;;;;;5004427;28;20706;-81
2023/12/27 14:19:20;;;;;;;5.78;1.80;;;;;;;;;;5035105;28;20589;-79
2023/12/27 14:21:49;;;;;;;7.53;1.90;;;;;;;;;;5031024;28;20195;-80
2023/12/27 14:24:19;;;;;;;4.38;1.80;;;;;;;;;;5014780;28;20666;-80
2023/12/27 14:26:51;;;;;;;3.45;1.65;;;;;;;;;;5014871;28;20577;-79
2023/12/27 14:29:22;;;;;;;8.55;1.98;;;;;;;;;;5015178;28;20282;-80
2023/12/27 14:31:52;;;;;;;5.90;1.80;;;;;;;;;;5025152;28;20238;-80
2023/12/27 14:34:22;;;;;;;6.20;1.70;;;;;;;;;;5015166;28;20202;-79
2023/12/27 14:36:55;;;;;;;4.10;1.80;;;;;;;;;;5015629;28;20213;-79
2023/12/27 14:39:28;;;;;;;5.18;1.70;;;;;;;;;;5015050;28;20586;-80
2023/12/27 14:41:58;;;;;;;9.88;1.98;;;;;;;;;;5015144;28;20198;-81
2023/12/27 14:44:30;;;;;;;5.30;1.50;;;;;;;;;;5014502;28;20213;-80
2023/12/27 14:46:59;;;;;;;6.60;1.80;;;;;;;;;;5012662;28;20683;-80
2023/12/27 14:49:29;;;;;;;6.53;1.70;;;;;;;;;;5003979;28;20647;-80
2023/12/27 14:52:00;;;;;;;5.45;1.80;;;;;;;;;;5005385;28;20565;-80
2023/12/27 14:54:29;;;;;;;4.85;1.90;;;;;;;;;;5010216;28;20206;-80
2023/12/27 14:56:59;;;;;;;6.63;2.00;;;;;;;;;;5004045;28;20231;-80
2023/12/27 14:59:31;;;;;;;4.25;1.63;;;;;;;;;;5020746;28;20224;-80
2023/12/27 15:02:01;;;;;;;7.45;2.17;;;;;;;;;;5013384;28;20190;-80